createdAt,value
2018-03-18T00:02:21.616Z,-2.10
2018-03-18T00:04:49.945Z,-2.10
2018-03-18T00:07:17.546Z,-2.00
2018-03-18T00:09:45.184Z,-2.00
2018-03-18T00:12:13.658Z,-1.90
2018-03-18T00:14:41.178Z,-1.90
2018-03-18T00:17:08.682Z,-1.90
2018-03-18T00:19:36.290Z,-2.00
2018-03-18T00:22:03.865Z,-2.00
2018-03-18T00:24:31.394Z,-2.00
2018-03-18T00:26:58.962Z,-2.10
2018-03-18T00:29:26.424Z,-2.00
2018-03-18T00:31:53.889Z,-2.00
2018-03-18T00:34:21.374Z,-2.10
2018-03-18T00:36:48.841Z,-2.10
2018-03-18T00:39:16.307Z,-2.00
2018-03-18T00:41:43.779Z,-2.00
2018-03-18T00:44:12.007Z,-2.00
2018-03-18T00:46:40.078Z,-2.00
2018-03-18T00:49:07.544Z,-2.00
2018-03-18T00:51:47.029Z,-2.10
2018-03-18T00:54:21.627Z,-2.20
2018-03-18T00:56:49.108Z,-2.20
2018-03-18T00:59:16.566Z,-2.30
2018-03-18T01:01:44.819Z,-2.30
2018-03-18T01:04:12.266Z,-2.30
2018-03-18T01:06:40.100Z,-2.30
2018-03-18T01:09:07.575Z,-2.30
2018-03-18T01:11:37.326Z,-2.30
2018-03-18T01:14:04.828Z,-2.30
2018-03-18T01:16:32.260Z,-2.30
2018-03-18T01:19:00.494Z,-2.30
2018-03-18T01:21:27.960Z,-2.30
2018-03-18T01:23:55.445Z,-2.20
2018-03-18T01:26:23.669Z,-2.30
2018-03-18T01:28:51.138Z,-2.30
2018-03-18T01:31:18.614Z,-2.30
2018-03-18T01:33:46.086Z,-2.30
2018-03-18T01:36:13.545Z,-2.40
2018-03-18T01:38:41.025Z,-2.40
2018-03-18T01:41:09.265Z,-2.30
2018-03-18T01:43:36.733Z,-2.30
2018-03-18T01:46:04.198Z,-2.20
2018-03-18T01:48:31.673Z,-2.30
2018-03-18T01:50:59.901Z,-2.30
2018-03-18T01:53:27.379Z,-2.30
2018-03-18T01:55:54.833Z,-2.30
2018-03-18T01:58:22.305Z,-2.30
2018-03-18T02:00:49.770Z,-2.30
2018-03-18T02:03:18.013Z,-2.40
2018-03-18T02:05:45.477Z,-2.40
2018-03-18T02:08:12.954Z,-2.40
2018-03-18T02:10:40.411Z,-2.40
2018-03-18T02:13:07.890Z,-2.50
2018-03-18T02:15:37.114Z,-2.50
2018-03-18T02:18:04.597Z,-2.50
2018-03-18T02:20:32.051Z,-2.40
2018-03-18T02:22:59.515Z,-2.30
2018-03-18T02:25:26.992Z,-2.30
2018-03-18T02:27:54.469Z,-2.30
2018-03-18T02:30:22.725Z,-2.50
2018-03-18T02:32:50.177Z,-2.50
2018-03-18T02:35:17.638Z,-2.60
2018-03-18T02:37:45.094Z,-2.60
2018-03-18T02:40:13.481Z,-2.60
2018-03-18T02:42:40.942Z,-2.60
2018-03-18T02:45:08.405Z,-2.50
2018-03-18T02:47:36.682Z,-2.60
2018-03-18T02:50:04.143Z,-2.70
2018-03-18T02:52:31.596Z,-2.70
2018-03-18T02:54:59.062Z,-2.60
2018-03-18T02:57:27.290Z,-2.70
2018-03-18T02:59:54.780Z,-2.70
2018-03-18T03:02:22.228Z,-2.60
2018-03-18T03:04:49.704Z,-2.70
2018-03-18T03:07:17.156Z,-2.60
2018-03-18T03:09:44.625Z,-2.60
2018-03-18T03:12:12.855Z,-2.70
2018-03-18T03:14:40.325Z,-2.70
2018-03-18T03:17:07.788Z,-2.70
2018-03-18T03:19:35.254Z,-2.70
2018-03-18T03:22:02.712Z,-2.70
2018-03-18T03:24:30.534Z,-2.70
2018-03-18T03:26:57.996Z,-2.70
2018-03-18T03:29:26.241Z,-2.60
2018-03-18T03:31:54.457Z,-2.70
2018-03-18T03:34:21.921Z,-2.70
2018-03-18T03:36:49.394Z,-2.70
2018-03-18T03:39:16.854Z,-2.70
2018-03-18T03:41:44.319Z,-2.70
2018-03-18T03:44:11.783Z,-2.70
2018-03-18T03:46:39.252Z,-2.70
2018-03-18T03:49:07.474Z,-2.90
2018-03-18T03:51:34.954Z,-2.90
2018-03-18T03:54:06.479Z,-2.80
2018-03-18T03:56:34.062Z,-2.80
2018-03-18T03:59:01.608Z,-2.70
2018-03-18T04:01:29.188Z,-2.80
2018-03-18T04:03:57.965Z,-2.90
2018-03-18T04:06:25.503Z,-2.80
2018-03-18T04:08:53.049Z,-2.80
2018-03-18T04:11:20.902Z,-2.90
2018-03-18T04:13:48.410Z,-2.90
2018-03-18T04:16:15.948Z,-2.90
2018-03-18T04:18:43.418Z,-2.90
2018-03-18T04:21:11.000Z,-3.00
2018-03-18T04:23:38.568Z,-3.00
2018-03-18T04:26:06.125Z,-3.00
2018-03-18T04:28:33.680Z,-2.90
2018-03-18T04:31:01.609Z,-3.00
2018-03-18T04:33:29.130Z,-3.00
2018-03-18T04:35:56.650Z,-2.90
2018-03-18T04:38:24.226Z,-2.90
2018-03-18T04:40:51.807Z,-2.90
2018-03-18T04:43:19.379Z,-2.90
2018-03-18T04:45:46.950Z,-3.00
2018-03-18T04:48:14.521Z,-3.00
2018-03-18T04:50:42.103Z,-3.00
2018-03-18T04:53:10.436Z,-3.10
2018-03-18T04:55:37.948Z,-3.10
2018-03-18T04:58:06.274Z,-3.20
2018-03-18T05:00:33.770Z,-3.20
2018-03-18T05:03:01.326Z,-3.10
2018-03-18T05:05:28.866Z,-3.10
2018-03-18T05:07:56.459Z,-3.10
2018-03-18T05:10:24.005Z,-3.10
2018-03-18T05:12:51.599Z,-3.10
2018-03-18T05:15:19.783Z,-3.10
2018-03-18T05:17:47.250Z,-3.10
2018-03-18T05:20:14.700Z,-3.00
2018-03-18T05:22:42.948Z,-2.90
2018-03-18T05:25:10.410Z,-2.90
2018-03-18T05:27:37.888Z,-2.90
2018-03-18T05:30:05.350Z,-3.00
2018-03-18T05:32:32.824Z,-3.10
2018-03-18T05:35:00.272Z,-3.00
2018-03-18T05:37:27.740Z,-3.00
2018-03-18T05:39:55.197Z,-3.00
2018-03-18T05:42:22.664Z,-3.10
2018-03-18T05:44:50.117Z,-3.00
2018-03-18T05:47:17.579Z,-3.10
2018-03-18T05:49:45.043Z,-3.10
2018-03-18T05:52:13.316Z,-3.00
2018-03-18T05:54:40.791Z,-3.00
2018-03-18T05:57:09.010Z,-2.90
2018-03-18T05:59:36.482Z,-2.90
2018-03-18T06:02:03.940Z,-2.90
2018-03-18T06:04:31.403Z,-2.80
2018-03-18T06:06:59.636Z,-2.80
2018-03-18T06:09:27.517Z,-2.80
2018-03-18T06:11:54.973Z,-2.80
2018-03-18T06:14:22.447Z,-2.80
2018-03-18T06:16:49.913Z,-2.70
2018-03-18T06:19:17.382Z,-2.80
2018-03-18T06:21:44.845Z,-2.80
2018-03-18T06:24:12.312Z,-2.90
2018-03-18T06:26:39.812Z,-2.90
2018-03-18T06:29:07.331Z,-3.00
2018-03-18T06:31:34.793Z,-2.80
2018-03-18T06:34:03.025Z,-2.70
2018-03-18T06:36:30.507Z,-2.80
2018-03-18T06:38:57.985Z,-2.70
2018-03-18T06:41:26.209Z,-2.70
2018-03-18T06:47:00.194Z,-2.70
2018-03-18T06:49:28.431Z,-2.70
2018-03-18T06:51:55.888Z,-2.70
2018-03-18T06:54:23.344Z,-2.60
2018-03-18T06:56:50.828Z,-2.60
2018-03-18T06:59:18.293Z,-2.60
2018-03-18T07:01:45.751Z,-2.50
2018-03-18T07:04:13.227Z,-2.40
2018-03-18T07:06:41.452Z,-2.50
2018-03-18T07:09:08.917Z,-2.50
2018-03-18T07:11:36.381Z,-2.50
2018-03-18T07:14:03.852Z,-2.50
2018-03-18T07:16:31.327Z,-2.40
2018-03-18T07:18:58.783Z,-2.40
2018-03-18T07:21:27.022Z,-2.40
2018-03-18T07:23:54.492Z,-2.40
2018-03-18T07:26:21.966Z,-2.30
2018-03-18T07:28:49.429Z,-2.30
2018-03-18T07:31:16.935Z,-2.40
2018-03-18T07:33:44.390Z,-2.30
2018-03-18T07:36:11.855Z,-2.20
2018-03-18T07:38:39.344Z,-2.20
2018-03-18T07:41:06.792Z,-2.30
2018-03-18T07:43:34.244Z,-2.20
2018-03-18T07:46:02.630Z,-2.30
2018-03-18T07:48:31.991Z,-2.10
2018-03-18T07:50:59.466Z,-2.00
2018-03-18T07:53:26.992Z,-1.90
2018-03-18T07:55:55.920Z,-2.00
2018-03-18T07:58:23.996Z,-2.00
2018-03-18T08:00:55.504Z,-1.90
2018-03-18T08:03:23.089Z,-1.90
2018-03-18T08:05:50.559Z,-1.90
2018-03-18T08:08:28.038Z,-1.90
2018-03-18T08:13:53.567Z,-1.90
2018-03-18T08:16:41.702Z,-1.80
2018-03-18T08:19:10.616Z,-1.80
2018-03-18T08:21:39.068Z,-1.70
2018-03-18T08:24:10.924Z,-1.70
2018-03-18T08:29:51.246Z,-1.60
2018-03-18T08:35:13.874Z,-1.50
2018-03-18T08:40:44.935Z,-1.50
2018-03-18T08:43:12.480Z,-1.60
2018-03-18T08:45:41.247Z,-1.50
2018-03-18T09:13:13.956Z,-1.20
2018-03-18T09:29:59.676Z,-1.10
2018-03-18T09:32:28.166Z,-1.10
2018-03-18T09:40:30.624Z,-0.80
2018-03-18T09:42:58.255Z,-0.90
2018-03-18T09:45:25.724Z,-0.90
2018-03-18T09:47:53.250Z,-0.80
2018-03-18T09:53:28.701Z,-0.70
2018-03-18T09:55:56.168Z,-0.70
2018-03-18T09:58:30.673Z,-0.60
2018-03-18T10:04:02.519Z,-0.60
2018-03-18T10:06:40.513Z,-0.50
2018-03-18T10:09:08.264Z,-0.50
2018-03-18T10:11:35.729Z,-0.50
2018-03-18T10:14:15.675Z,-0.40
2018-03-18T10:16:43.151Z,-0.40
2018-03-18T10:19:11.391Z,-0.30
2018-03-18T10:21:44.925Z,-0.30
2018-03-18T10:24:19.014Z,-0.20
2018-03-18T10:26:46.483Z,-0.20
2018-03-18T10:29:13.963Z,-0.20
2018-03-18T10:31:42.190Z,-0.20
2018-03-18T10:34:11.557Z,-0.20
2018-03-18T10:36:45.456Z,-0.10
2018-03-18T10:39:22.007Z,-0.20
2018-03-18T10:41:49.531Z,-0.10
2018-03-18T10:44:17.265Z,-0.20
2018-03-18T10:46:44.754Z,-0.20
2018-03-18T10:49:12.295Z,-0.10
2018-03-18T10:51:39.704Z,-0.20
2018-03-18T10:54:07.170Z,-0.20
2018-03-18T10:56:36.106Z,-0.10
2018-03-18T10:59:09.391Z,-0.10
2018-03-18T11:01:42.541Z,-0.10
2018-03-18T11:04:10.918Z,0.00
2018-03-18T11:06:38.365Z,0.00
2018-03-18T11:09:05.826Z,0.00
2018-03-18T11:11:33.286Z,0.10
2018-03-18T11:14:00.785Z,0.20
2018-03-18T11:16:28.246Z,0.30
2018-03-18T11:18:55.714Z,0.20
2018-03-18T11:21:23.172Z,0.30
2018-03-18T11:23:50.675Z,0.30
2018-03-18T11:26:18.148Z,0.30
2018-03-18T11:28:45.633Z,0.30
2018-03-18T11:31:13.097Z,0.30
2018-03-18T11:33:40.556Z,0.40
2018-03-18T11:36:08.021Z,0.40
2018-03-18T11:38:35.537Z,0.60
2018-03-18T11:41:02.967Z,0.60
2018-03-18T11:43:30.450Z,0.50
2018-03-18T11:45:57.909Z,0.50
2018-03-18T11:48:26.139Z,0.50
2018-03-18T11:50:53.613Z,0.50
2018-03-18T11:53:21.065Z,0.50
2018-03-18T11:55:48.899Z,0.60
2018-03-18T11:58:17.140Z,0.50
2018-03-18T12:00:44.608Z,0.50
2018-03-18T12:03:12.825Z,0.50
2018-03-18T12:05:40.807Z,0.50
2018-03-18T12:08:08.266Z,0.50
2018-03-18T12:10:35.726Z,0.60
2018-03-18T12:13:03.178Z,0.70
2018-03-18T12:15:30.674Z,0.80
2018-03-18T12:17:58.136Z,0.80
2018-03-18T12:20:25.702Z,0.80
2018-03-18T12:22:53.153Z,0.80
2018-03-18T12:25:21.398Z,0.80
2018-03-18T12:27:49.650Z,0.80
2018-03-18T12:30:17.120Z,0.80
2018-03-18T12:32:44.672Z,0.80
2018-03-18T12:35:12.895Z,0.90
2018-03-18T12:37:40.358Z,0.90
2018-03-18T13:04:50.353Z,1.00
2018-03-18T13:07:17.836Z,1.00
2018-03-18T13:09:45.294Z,1.00
2018-03-18T13:12:12.758Z,1.10
2018-03-18T13:14:40.996Z,1.10
2018-03-18T13:17:08.461Z,1.10
2018-03-18T13:19:35.925Z,1.20
2018-03-18T13:22:04.513Z,1.20
2018-03-18T13:24:31.990Z,1.20
2018-03-18T13:27:02.177Z,1.30
2018-03-18T13:29:29.666Z,1.30
2018-03-18T13:31:57.910Z,1.20
2018-03-18T13:34:25.369Z,1.20
2018-03-18T13:36:52.912Z,1.30
2018-03-18T13:39:20.290Z,1.30
2018-03-18T13:41:57.106Z,1.30
2018-03-18T13:44:24.906Z,1.40
2018-03-18T13:47:03.820Z,1.40
2018-03-18T13:49:35.697Z,1.40
2018-03-18T13:52:03.272Z,1.50
2018-03-18T13:54:40.825Z,1.40
2018-03-18T13:57:08.355Z,1.40
2018-03-18T13:59:35.880Z,1.50
2018-03-18T14:02:03.385Z,1.50
2018-03-18T14:04:41.514Z,1.40
2018-03-18T14:07:11.018Z,1.40
2018-03-18T14:09:38.506Z,1.40
2018-03-18T14:12:06.583Z,1.50
2018-03-18T14:14:53.650Z,1.40
2018-03-18T14:17:33.087Z,1.40
2018-03-18T14:20:05.095Z,1.40
2018-03-18T14:22:32.567Z,1.40
2018-03-18T14:25:00.092Z,1.40
2018-03-18T14:27:32.434Z,1.40
2018-03-18T14:32:33.015Z,1.30
2018-03-18T14:35:00.483Z,1.30
2018-03-18T14:37:27.985Z,1.30
2018-03-18T14:39:55.527Z,1.30
2018-03-18T14:42:23.028Z,1.30
2018-03-18T14:44:50.592Z,1.40
2018-03-18T14:47:18.874Z,1.30
2018-03-18T14:49:47.165Z,1.40
2018-03-18T14:52:15.902Z,1.30
2018-03-18T14:54:43.383Z,1.30
2018-03-18T14:57:10.909Z,1.30
2018-03-18T14:59:38.892Z,1.30
2018-03-18T15:02:06.354Z,1.30
2018-03-18T15:04:34.515Z,1.40
2018-03-18T15:07:01.990Z,1.30
2018-03-18T15:09:35.544Z,1.30
2018-03-18T15:12:02.987Z,1.20
2018-03-18T15:14:30.468Z,1.20
2018-03-18T15:16:57.935Z,1.20
2018-03-18T15:19:25.418Z,1.20
2018-03-18T15:21:52.865Z,1.20
2018-03-18T15:24:20.363Z,1.20
2018-03-18T15:26:48.605Z,1.20
2018-03-18T15:29:16.082Z,1.20
2018-03-18T15:31:44.336Z,1.10
2018-03-18T15:34:11.804Z,1.10
2018-03-18T15:36:40.045Z,1.00
2018-03-18T15:39:07.523Z,1.00
2018-03-18T15:41:34.993Z,1.00
2018-03-18T15:44:02.468Z,0.90
2018-03-18T15:46:29.924Z,0.90
2018-03-18T15:48:57.381Z,0.90
2018-03-18T15:51:25.622Z,0.80
2018-03-18T15:53:53.087Z,0.80
2018-03-18T15:56:20.561Z,0.80
2018-03-18T15:58:48.028Z,0.70
2018-03-18T16:01:15.502Z,0.70
2018-03-18T16:03:43.745Z,0.70
2018-03-18T16:06:11.221Z,0.70
2018-03-18T16:08:38.676Z,0.80
2018-03-18T16:11:06.141Z,0.80
2018-03-18T16:13:33.603Z,0.80
2018-03-18T16:16:02.164Z,0.70
2018-03-18T16:18:29.626Z,0.70
2018-03-18T16:20:57.149Z,0.70
2018-03-18T16:23:24.615Z,0.60
2018-03-18T16:25:53.103Z,0.60
2018-03-18T16:28:20.581Z,0.50
2018-03-18T16:30:59.985Z,0.50
2018-03-18T16:33:27.463Z,0.40
2018-03-18T16:36:12.022Z,0.50
2018-03-18T16:38:39.488Z,0.40
2018-03-18T16:41:06.962Z,0.40
2018-03-18T16:43:35.203Z,0.40
2018-03-18T16:46:02.672Z,0.40
2018-03-18T16:48:30.130Z,0.40
2018-03-18T16:50:57.607Z,0.40
2018-03-18T16:56:21.055Z,0.30
2018-03-18T16:58:49.285Z,0.30
2018-03-18T17:01:17.524Z,0.30
2018-03-18T17:03:45.954Z,0.20
2018-03-18T17:06:13.467Z,0.30
2018-03-18T17:08:41.878Z,0.30
2018-03-18T17:11:10.125Z,0.10
2018-03-18T17:13:38.833Z,0.10
2018-03-18T17:16:06.320Z,0.20
2018-03-18T17:18:33.790Z,0.10
2018-03-18T17:21:02.098Z,0.10
2018-03-18T17:23:30.438Z,0.10
2018-03-18T17:25:57.888Z,0.10
2018-03-18T17:28:25.345Z,0.20
2018-03-18T17:30:52.797Z,0.10
2018-03-18T17:33:24.485Z,0.00
2018-03-18T17:35:51.946Z,0.00
2018-03-18T17:38:19.430Z,0.00
2018-03-18T17:40:47.826Z,0.00
2018-03-18T17:43:15.292Z,0.00
2018-03-18T17:45:55.349Z,0.10
2018-03-18T17:48:46.129Z,0.00
2018-03-18T17:51:25.353Z,0.00
2018-03-18T17:54:04.858Z,0.00
2018-03-18T17:56:35.895Z,-0.10
2018-03-18T17:59:03.357Z,-0.10
2018-03-18T18:01:30.807Z,-0.10
2018-03-18T18:03:59.146Z,-0.10
2018-03-18T18:06:26.612Z,-0.10
2018-03-18T18:08:54.081Z,-0.10
2018-03-18T18:11:22.315Z,-0.10
2018-03-18T18:13:49.781Z,-0.10
2018-03-18T18:16:17.375Z,-0.10
2018-03-18T18:18:45.643Z,-0.20
2018-03-18T18:21:15.674Z,-0.20
2018-03-18T18:23:44.636Z,-0.10
2018-03-18T18:26:12.107Z,-0.10
2018-03-18T18:28:39.588Z,-0.10
2018-03-18T18:31:07.583Z,-0.10
2018-03-18T18:33:35.061Z,-0.20
2018-03-18T18:36:02.523Z,-0.20
2018-03-18T18:38:29.986Z,-0.30
2018-03-18T18:40:57.456Z,-0.20
2018-03-18T18:43:24.943Z,-0.20
2018-03-18T18:45:53.162Z,-0.30
2018-03-18T18:48:21.386Z,-0.30
2018-03-18T18:50:49.662Z,-0.40
2018-03-18T18:53:17.894Z,-0.30
2018-03-18T18:55:45.381Z,-0.40
2018-03-18T18:58:12.849Z,-0.30
2018-03-18T19:00:40.364Z,-0.30
2018-03-18T19:03:08.622Z,-0.30
2018-03-18T19:05:36.099Z,-0.30
2018-03-18T19:08:04.391Z,-0.30
2018-03-18T19:10:31.945Z,-0.30
2018-03-18T19:12:59.422Z,-0.30
2018-03-18T19:15:26.897Z,-0.30
2018-03-18T19:17:55.143Z,-0.40
2018-03-18T19:20:22.617Z,-0.40
2018-03-18T19:22:50.074Z,-0.30
2018-03-18T19:25:17.571Z,-0.40
2018-03-18T19:27:45.024Z,-0.40
2018-03-18T19:30:13.275Z,-0.50
2018-03-18T19:32:40.737Z,-0.50
2018-03-18T19:35:08.214Z,-0.40
2018-03-18T19:37:36.444Z,-0.50
2018-03-18T19:40:03.942Z,-0.50
2018-03-18T19:42:32.184Z,-0.50
2018-03-18T19:44:59.719Z,-0.50
2018-03-18T19:47:27.182Z,-0.50
2018-03-18T19:49:54.657Z,-0.50
2018-03-18T19:52:22.264Z,-0.40
2018-03-18T19:54:50.504Z,-0.50
2018-03-18T19:57:17.976Z,-0.50
2018-03-18T19:59:45.443Z,-0.50
2018-03-18T20:02:13.898Z,-0.40
2018-03-18T20:04:41.363Z,-0.50
2018-03-18T20:07:08.834Z,-0.50
2018-03-18T20:09:37.076Z,-0.40
2018-03-18T20:12:04.573Z,-0.40
2018-03-18T20:14:32.086Z,-0.40
2018-03-18T20:16:59.560Z,-0.50
2018-03-18T20:19:27.029Z,-0.40
2018-03-18T20:21:54.513Z,-0.40
2018-03-18T20:24:22.757Z,-0.40
2018-03-18T20:26:50.241Z,-0.40
2018-03-18T20:29:18.482Z,-0.50
2018-03-18T20:31:45.954Z,-0.50
2018-03-18T20:34:13.462Z,-0.60
2018-03-18T20:36:40.948Z,-0.50
2018-03-18T20:39:08.445Z,-0.50
2018-03-18T20:41:35.917Z,-0.60
2018-03-18T20:44:04.177Z,-0.60
2018-03-18T20:46:31.678Z,-0.60
2018-03-18T20:49:04.913Z,-0.60
2018-03-18T20:51:33.373Z,-0.60
2018-03-18T20:54:11.511Z,-0.60
2018-03-18T20:56:50.050Z,-0.70
2018-03-18T20:59:20.237Z,-0.60
2018-03-18T21:01:54.936Z,-0.60
2018-03-18T21:07:29.877Z,-0.60
2018-03-18T21:09:57.400Z,-0.70
2018-03-18T21:12:25.222Z,-0.60
2018-03-18T21:14:52.942Z,-0.60
2018-03-18T21:17:35.932Z,-0.70
2018-03-18T21:20:03.483Z,-0.70
2018-03-18T21:22:32.519Z,-0.60
2018-03-18T21:25:02.123Z,-0.60
2018-03-18T21:27:31.458Z,-0.60
2018-03-18T21:33:15.487Z,-0.60
2018-03-18T21:35:45.645Z,-0.80
2018-03-18T21:38:13.125Z,-0.80
2018-03-18T21:40:40.657Z,-0.80
2018-03-18T21:43:08.297Z,-0.80
2018-03-18T21:45:35.854Z,-0.70
2018-03-18T21:48:03.458Z,-0.80
2018-03-18T21:50:30.954Z,-0.70
2018-03-18T21:52:58.461Z,-0.70
2018-03-18T21:55:26.044Z,-0.70
2018-03-18T21:57:53.782Z,-0.70
2018-03-18T22:00:21.267Z,-0.80
2018-03-18T22:02:48.840Z,-0.90
2018-03-18T22:05:16.364Z,-0.90
2018-03-18T22:07:43.905Z,-0.90
2018-03-18T22:10:12.322Z,-0.80
2018-03-18T22:12:39.812Z,-0.80
2018-03-18T22:15:07.369Z,-0.80
2018-03-18T22:17:34.951Z,-0.80
2018-03-18T22:20:02.425Z,-0.80
2018-03-18T22:22:30.705Z,-0.80
2018-03-18T22:24:58.526Z,-0.80
2018-03-18T22:27:32.086Z,-0.80
2018-03-18T22:29:59.563Z,-0.80
2018-03-18T22:32:27.041Z,-0.80
2018-03-18T22:34:55.202Z,-0.80
2018-03-18T22:37:25.627Z,-0.80
2018-03-18T22:39:54.546Z,-0.80
2018-03-18T22:42:23.817Z,-0.80
2018-03-18T22:44:51.837Z,-0.80
2018-03-18T22:47:19.288Z,-0.90
2018-03-18T22:49:52.014Z,-0.90
2018-03-18T22:52:19.842Z,-0.80
2018-03-18T22:54:48.340Z,-0.90
2018-03-18T22:57:16.340Z,-0.90
2018-03-18T23:02:42.490Z,-0.90
2018-03-18T23:05:10.470Z,-0.90
2018-03-18T23:07:37.939Z,-1.00
2018-03-18T23:10:05.422Z,-1.00
2018-03-18T23:12:33.267Z,-1.00
2018-03-18T23:15:01.330Z,-1.10
2018-03-18T23:17:29.286Z,-1.10
2018-03-18T23:19:57.257Z,-1.10
2018-03-18T23:22:24.733Z,-1.10
2018-03-18T23:24:52.220Z,-1.00
2018-03-18T23:27:20.505Z,-1.10
2018-03-18T23:29:48.734Z,-1.10
2018-03-18T23:32:16.256Z,-1.10
2018-03-18T23:34:43.731Z,-1.10
2018-03-18T23:37:14.249Z,-1.20
2018-03-18T23:39:42.447Z,-1.20
2018-03-18T23:42:10.194Z,-1.20
2018-03-18T23:44:38.068Z,-1.20
2018-03-18T23:47:05.537Z,-1.20
2018-03-18T23:49:33.024Z,-1.20
2018-03-18T23:52:04.190Z,-1.10
2018-03-18T23:54:32.922Z,-1.30
2018-03-18T23:59:59.588Z,-1.30
